Belle Glade, Florida
Current Conditions -  °F | °C
As of 10:53 AM on Thursday 18 Dec 2014 (Local Time) from KPBI Reporting Station
Broken Clouds Broken Clouds  
Wind Chill: 71°   Ceiling: 24000
Heat Index: 71°   Visibility: 10mi
Dew Point: 56°   Wind: 6mph
Humidity: 59%   Direction: 290°WNW
Pressure: 30.17"   Gusts: NA
Location:  26.69°N, 80.67°W
Report Text: KPBI 181553Z 29005KT 10SM BKN240 22/13 A3017 RMK AO2 SLP217 T02170133
Loading
Personal Weather Stations






























Interactive Weather Map New forecast layout! Learn more

10-Day Weather Forecast

Advertisements
Track Severe Weather on mobile